sensor_id;sensor_type;location;lat;lon;timestamp;P1;durP1;ratioP1;P2;durP2;ratioP2
43086;SDS011;28708;52.224;6.924;2023-07-13T00:01:51;7.97;;;1.90;;
43086;SDS011;28708;52.224;6.924;2023-07-13T00:04:18;8.23;;;2.10;;
43086;SDS011;28708;52.224;6.924;2023-07-13T00:06:46;7.83;;;2.00;;
43086;SDS011;28708;52.224;6.924;2023-07-13T00:09:12;7.83;;;1.87;;
43086;SDS011;28708;52.224;6.924;2023-07-13T00:11:42;7.27;;;2.00;;
43086;SDS011;28708;52.224;6.924;2023-07-13T00:14:09;6.47;;;1.97;;
43086;SDS011;28708;52.224;6.924;2023-07-13T00:16:37;8.07;;;1.90;;
43086;SDS011;28708;52.224;6.924;2023-07-13T00:19:04;8.20;;;2.30;;
43086;SDS011;28708;52.224;6.924;2023-07-13T00:21:31;6.30;;;1.90;;
43086;SDS011;28708;52.224;6.924;2023-07-13T00:23:57;10.97;;;2.30;;
43086;SDS011;28708;52.224;6.924;2023-07-13T00:26:23;7.47;;;1.83;;
43086;SDS011;28708;52.224;6.924;2023-07-13T00:28:49;9.87;;;2.17;;
43086;SDS011;28708;52.224;6.924;2023-07-13T00:31:15;6.90;;;1.90;;
43086;SDS011;28708;52.224;6.924;2023-07-13T00:33:41;6.50;;;1.90;;
43086;SDS011;28708;52.224;6.924;2023-07-13T00:36:07;11.77;;;2.70;;
43086;SDS011;28708;52.224;6.924;2023-07-13T00:38:34;9.37;;;1.77;;
43086;SDS011;28708;52.224;6.924;2023-07-13T00:41:00;12.73;;;2.47;;
43086;SDS011;28708;52.224;6.924;2023-07-13T00:43:28;8.03;;;1.70;;
43086;SDS011;28708;52.224;6.924;2023-07-13T00:48:27;8.17;;;2.17;;
43086;SDS011;28708;52.224;6.924;2023-07-13T00:50:57;7.53;;;2.13;;
43086;SDS011;28708;52.224;6.924;2023-07-13T00:53:26;9.60;;;2.67;;
43086;SDS011;28708;52.224;6.924;2023-07-13T00:55:55;6.63;;;2.40;;
43086;SDS011;28708;52.224;6.924;2023-07-13T00:58:22;13.50;;;3.50;;
43086;SDS011;28708;52.224;6.924;2023-07-13T01:00:49;8.83;;;2.40;;
43086;SDS011;28708;52.224;6.924;2023-07-13T01:03:17;10.07;;;2.70;;
43086;SDS011;28708;52.224;6.924;2023-07-13T01:05:44;11.80;;;2.93;;
43086;SDS011;28708;52.224;6.924;2023-07-13T01:08:14;7.72;;;2.47;;
43086;SDS011;28708;52.224;6.924;2023-07-13T01:10:41;9.50;;;2.60;;
43086;SDS011;28708;52.224;6.924;2023-07-13T01:13:16;7.90;;;2.90;;
43086;SDS011;28708;52.224;6.924;2023-07-13T01:15:43;15.60;;;2.80;;
43086;SDS011;28708;52.224;6.924;2023-07-13T01:18:19;12.50;;;2.70;;
43086;SDS011;28708;52.224;6.924;2023-07-13T01:20:53;12.27;;;2.87;;
43086;SDS011;28708;52.224;6.924;2023-07-13T01:23:26;14.60;;;2.60;;
43086;SDS011;28708;52.224;6.924;2023-07-13T01:25:54;10.37;;;2.53;;
43086;SDS011;28708;52.224;6.924;2023-07-13T01:28:21;9.17;;;2.70;;
43086;SDS011;28708;52.224;6.924;2023-07-13T01:30:47;11.03;;;3.10;;
43086;SDS011;28708;52.224;6.924;2023-07-13T01:33:14;9.10;;;2.83;;
43086;SDS011;28708;52.224;6.924;2023-07-13T01:35:42;10.23;;;2.97;;
43086;SDS011;28708;52.224;6.924;2023-07-13T01:38:09;15.77;;;3.10;;
43086;SDS011;28708;52.224;6.924;2023-07-13T01:40:37;8.97;;;2.57;;
43086;SDS011;28708;52.224;6.924;2023-07-13T01:43:04;11.43;;;3.13;;
43086;SDS011;28708;52.224;6.924;2023-07-13T01:45:30;9.60;;;2.57;;
43086;SDS011;28708;52.224;6.924;2023-07-13T01:47:56;13.20;;;2.83;;
43086;SDS011;28708;52.224;6.924;2023-07-13T01:50:23;9.37;;;2.80;;
43086;SDS011;28708;52.224;6.924;2023-07-13T01:52:49;9.00;;;2.60;;
43086;SDS011;28708;52.224;6.924;2023-07-13T01:55:15;8.77;;;2.40;;
43086;SDS011;28708;52.224;6.924;2023-07-13T01:57:41;7.40;;;2.63;;
43086;SDS011;28708;52.224;6.924;2023-07-13T02:00:08;11.27;;;2.40;;
43086;SDS011;28708;52.224;6.924;2023-07-13T02:05:12;10.90;;;2.83;;
43086;SDS011;28708;52.224;6.924;2023-07-13T02:07:40;11.73;;;3.13;;
43086;SDS011;28708;52.224;6.924;2023-07-13T02:10:07;11.00;;;2.97;;
43086;SDS011;28708;52.224;6.924;2023-07-13T02:12:35;11.33;;;2.80;;
43086;SDS011;28708;52.224;6.924;2023-07-13T02:15:01;11.77;;;2.70;;
43086;SDS011;28708;52.224;6.924;2023-07-13T02:17:28;11.23;;;2.90;;
43086;SDS011;28708;52.224;6.924;2023-07-13T02:19:53;10.17;;;2.93;;
43086;SDS011;28708;52.224;6.924;2023-07-13T02:22:20;10.63;;;2.77;;
43086;SDS011;28708;52.224;6.924;2023-07-13T02:24:46;10.63;;;2.50;;
43086;SDS011;28708;52.224;6.924;2023-07-13T02:27:12;11.20;;;2.70;;
43086;SDS011;28708;52.224;6.924;2023-07-13T02:29:38;14.17;;;3.10;;
43086;SDS011;28708;52.224;6.924;2023-07-13T02:32:04;10.93;;;2.83;;
43086;SDS011;28708;52.224;6.924;2023-07-13T02:34:30;10.00;;;2.57;;
43086;SDS011;28708;52.224;6.924;2023-07-13T02:36:56;14.00;;;2.87;;
43086;SDS011;28708;52.224;6.924;2023-07-13T02:39:22;11.60;;;3.27;;
43086;SDS011;28708;52.224;6.924;2023-07-13T02:41:48;8.53;;;2.50;;
43086;SDS011;28708;52.224;6.924;2023-07-13T02:44:14;10.80;;;2.57;;
43086;SDS011;28708;52.224;6.924;2023-07-13T02:46:40;7.60;;;3.07;;
43086;SDS011;28708;52.224;6.924;2023-07-13T02:49:06;11.67;;;3.03;;
43086;SDS011;28708;52.224;6.924;2023-07-13T02:51:32;10.67;;;2.77;;
43086;SDS011;28708;52.224;6.924;2023-07-13T02:54:03;8.07;;;2.60;;
43086;SDS011;28708;52.224;6.924;2023-07-13T02:56:30;9.87;;;2.70;;
43086;SDS011;28708;52.224;6.924;2023-07-13T02:58:57;9.40;;;2.87;;
43086;SDS011;28708;52.224;6.924;2023-07-13T03:01:23;11.87;;;2.83;;
43086;SDS011;28708;52.224;6.924;2023-07-13T03:03:49;11.07;;;2.90;;
43086;SDS011;28708;52.224;6.924;2023-07-13T03:06:17;12.63;;;2.73;;
43086;SDS011;28708;52.224;6.924;2023-07-13T03:08:48;9.60;;;2.57;;
43086;SDS011;28708;52.224;6.924;2023-07-13T03:11:16;9.47;;;2.37;;
43086;SDS011;28708;52.224;6.924;2023-07-13T03:13:46;12.87;;;3.13;;
43086;SDS011;28708;52.224;6.924;2023-07-13T03:16:13;8.60;;;2.77;;
43086;SDS011;28708;52.224;6.924;2023-07-13T03:18:42;9.60;;;3.27;;
43086;SDS011;28708;52.224;6.924;2023-07-13T03:21:10;15.87;;;3.20;;
43086;SDS011;28708;52.224;6.924;2023-07-13T03:23:36;9.73;;;2.87;;
43086;SDS011;28708;52.224;6.924;2023-07-13T03:26:03;12.23;;;3.30;;
43086;SDS011;28708;52.224;6.924;2023-07-13T03:28:31;12.80;;;3.10;;
43086;SDS011;28708;52.224;6.924;2023-07-13T03:31:01;11.53;;;2.80;;
43086;SDS011;28708;52.224;6.924;2023-07-13T03:33:32;8.07;;;2.80;;
43086;SDS011;28708;52.224;6.924;2023-07-13T03:35:58;14.83;;;3.70;;
43086;SDS011;28708;52.224;6.924;2023-07-13T03:38:24;11.90;;;3.40;;
43086;SDS011;28708;52.224;6.924;2023-07-13T03:40:51;11.20;;;2.87;;
43086;SDS011;28708;52.224;6.924;2023-07-13T03:43:18;7.87;;;3.00;;
43086;SDS011;28708;52.224;6.924;2023-07-13T03:45:46;15.30;;;2.97;;
43086;SDS011;28708;52.224;6.924;2023-07-13T03:48:12;11.90;;;3.63;;
43086;SDS011;28708;52.224;6.924;2023-07-13T03:50:39;9.80;;;3.20;;
43086;SDS011;28708;52.224;6.924;2023-07-13T03:53:05;11.27;;;3.50;;
43086;SDS011;28708;52.224;6.924;2023-07-13T03:55:31;12.27;;;3.50;;
43086;SDS011;28708;52.224;6.924;2023-07-13T03:57:58;11.67;;;3.17;;
43086;SDS011;28708;52.224;6.924;2023-07-13T04:00:45;10.87;;;2.90;;
43086;SDS011;28708;52.224;6.924;2023-07-13T04:03:11;12.27;;;3.20;;
43086;SDS011;28708;52.224;6.924;2023-07-13T04:05:37;12.57;;;2.97;;
43086;SDS011;28708;52.224;6.924;2023-07-13T04:08:05;12.33;;;3.53;;
43086;SDS011;28708;52.224;6.924;2023-07-13T04:10:32;11.30;;;3.40;;
43086;SDS011;28708;52.224;6.924;2023-07-13T04:12:58;11.07;;;3.43;;
43086;SDS011;28708;52.224;6.924;2023-07-13T04:15:23;9.90;;;2.93;;
43086;SDS011;28708;52.224;6.924;2023-07-13T04:17:49;12.37;;;4.17;;
43086;SDS011;28708;52.224;6.924;2023-07-13T04:20:15;10.33;;;3.10;;
43086;SDS011;28708;52.224;6.924;2023-07-13T04:22:41;16.13;;;3.50;;
43086;SDS011;28708;52.224;6.924;2023-07-13T04:25:07;7.83;;;3.13;;
43086;SDS011;28708;52.224;6.924;2023-07-13T04:27:32;9.67;;;2.80;;
43086;SDS011;28708;52.224;6.924;2023-07-13T04:29:58;9.60;;;3.67;;
43086;SDS011;28708;52.224;6.924;2023-07-13T04:32:24;12.40;;;3.87;;
43086;SDS011;28708;52.224;6.924;2023-07-13T04:34:50;11.97;;;3.50;;
43086;SDS011;28708;52.224;6.924;2023-07-13T04:37:18;14.33;;;3.97;;
43086;SDS011;28708;52.224;6.924;2023-07-13T04:39:45;11.03;;;3.43;;
43086;SDS011;28708;52.224;6.924;2023-07-13T04:42:10;11.47;;;3.50;;
43086;SDS011;28708;52.224;6.924;2023-07-13T04:44:36;16.60;;;4.13;;
43086;SDS011;28708;52.224;6.924;2023-07-13T04:47:02;12.97;;;3.47;;
43086;SDS011;28708;52.224;6.924;2023-07-13T04:49:28;12.40;;;4.37;;
43086;SDS011;28708;52.224;6.924;2023-07-13T04:51:54;10.27;;;3.60;;
43086;SDS011;28708;52.224;6.924;2023-07-13T04:54:20;17.23;;;4.27;;
43086;SDS011;28708;52.224;6.924;2023-07-13T04:56:47;12.30;;;3.97;;
43086;SDS011;28708;52.224;6.924;2023-07-13T04:59:12;11.30;;;4.03;;
43086;SDS011;28708;52.224;6.924;2023-07-13T05:01:38;9.87;;;3.63;;
43086;SDS011;28708;52.224;6.924;2023-07-13T05:04:05;15.63;;;4.03;;
43086;SDS011;28708;52.224;6.924;2023-07-13T05:06:31;13.47;;;4.23;;
43086;SDS011;28708;52.224;6.924;2023-07-13T05:08:57;13.40;;;4.17;;
43086;SDS011;28708;52.224;6.924;2023-07-13T05:11:23;11.67;;;3.90;;
43086;SDS011;28708;52.224;6.924;2023-07-13T05:13:49;14.10;;;3.77;;
43086;SDS011;28708;52.224;6.924;2023-07-13T05:16:15;14.17;;;4.20;;
43086;SDS011;28708;52.224;6.924;2023-07-13T05:18:40;13.20;;;3.93;;
43086;SDS011;28708;52.224;6.924;2023-07-13T05:21:07;9.73;;;3.63;;
43086;SDS011;28708;52.224;6.924;2023-07-13T05:23:35;16.27;;;4.07;;
43086;SDS011;28708;52.224;6.924;2023-07-13T05:26:02;14.33;;;4.97;;
43086;SDS011;28708;52.224;6.924;2023-07-13T05:28:29;11.63;;;3.73;;
43086;SDS011;28708;52.224;6.924;2023-07-13T05:30:56;15.50;;;4.40;;
43086;SDS011;28708;52.224;6.924;2023-07-13T05:33:22;14.23;;;3.90;;
43086;SDS011;28708;52.224;6.924;2023-07-13T05:35:48;17.87;;;4.80;;
43086;SDS011;28708;52.224;6.924;2023-07-13T05:38:14;16.33;;;4.80;;
43086;SDS011;28708;52.224;6.924;2023-07-13T05:40:41;15.93;;;4.20;;
43086;SDS011;28708;52.224;6.924;2023-07-13T05:43:09;15.30;;;4.50;;
43086;SDS011;28708;52.224;6.924;2023-07-13T05:45:34;12.67;;;4.70;;
43086;SDS011;28708;52.224;6.924;2023-07-13T05:48:00;13.03;;;4.27;;
43086;SDS011;28708;52.224;6.924;2023-07-13T05:50:26;18.93;;;4.37;;
43086;SDS011;28708;52.224;6.924;2023-07-13T05:52:52;12.70;;;4.20;;
43086;SDS011;28708;52.224;6.924;2023-07-13T05:55:19;12.83;;;4.10;;
43086;SDS011;28708;52.224;6.924;2023-07-13T05:57:45;16.00;;;4.90;;
43086;SDS011;28708;52.224;6.924;2023-07-13T06:00:11;19.00;;;4.73;;
43086;SDS011;28708;52.224;6.924;2023-07-13T06:02:39;17.70;;;5.40;;
43086;SDS011;28708;52.224;6.924;2023-07-13T06:05:05;14.30;;;5.00;;
43086;SDS011;28708;52.224;6.924;2023-07-13T06:07:31;16.83;;;6.23;;
43086;SDS011;28708;52.224;6.924;2023-07-13T06:09:57;17.67;;;5.20;;
43086;SDS011;28708;52.224;6.924;2023-07-13T06:12:24;17.27;;;5.43;;
43086;SDS011;28708;52.224;6.924;2023-07-13T06:14:51;19.27;;;5.40;;
43086;SDS011;28708;52.224;6.924;2023-07-13T06:17:16;17.73;;;5.10;;
43086;SDS011;28708;52.224;6.924;2023-07-13T06:19:43;16.50;;;5.40;;
43086;SDS011;28708;52.224;6.924;2023-07-13T06:22:09;15.40;;;4.97;;
43086;SDS011;28708;52.224;6.924;2023-07-13T06:24:35;14.23;;;5.80;;
43086;SDS011;28708;52.224;6.924;2023-07-13T06:27:00;18.60;;;5.53;;
43086;SDS011;28708;52.224;6.924;2023-07-13T06:29:26;15.43;;;6.00;;
43086;SDS011;28708;52.224;6.924;2023-07-13T06:31:52;19.50;;;5.43;;
43086;SDS011;28708;52.224;6.924;2023-07-13T06:34:18;19.60;;;6.50;;
43086;SDS011;28708;52.224;6.924;2023-07-13T06:36:44;19.93;;;5.90;;
43086;SDS011;28708;52.224;6.924;2023-07-13T06:39:10;17.17;;;7.10;;
43086;SDS011;28708;52.224;6.924;2023-07-13T06:41:35;20.30;;;7.37;;
43086;SDS011;28708;52.224;6.924;2023-07-13T06:44:01;15.57;;;5.97;;
43086;SDS011;28708;52.224;6.924;2023-07-13T06:46:28;21.73;;;7.23;;
43086;SDS011;28708;52.224;6.924;2023-07-13T06:48:55;15.57;;;5.83;;
43086;SDS011;28708;52.224;6.924;2023-07-13T06:51:21;19.90;;;6.97;;
43086;SDS011;28708;52.224;6.924;2023-07-13T06:53:47;19.40;;;6.80;;
43086;SDS011;28708;52.224;6.924;2023-07-13T06:56:13;20.33;;;7.30;;
43086;SDS011;28708;52.224;6.924;2023-07-13T06:58:39;18.93;;;7.77;;
43086;SDS011;28708;52.224;6.924;2023-07-13T07:01:05;14.57;;;6.37;;
43086;SDS011;28708;52.224;6.924;2023-07-13T07:03:31;15.53;;;7.77;;
43086;SDS011;28708;52.224;6.924;2023-07-13T07:06:01;15.40;;;6.60;;
43086;SDS011;28708;52.224;6.924;2023-07-13T07:08:34;22.40;;;7.40;;
43086;SDS011;28708;52.224;6.924;2023-07-13T07:11:00;21.87;;;7.93;;
43086;SDS011;28708;52.224;6.924;2023-07-13T07:13:26;18.10;;;7.33;;
43086;SDS011;28708;52.224;6.924;2023-07-13T07:15:53;16.83;;;6.83;;
43086;SDS011;28708;52.224;6.924;2023-07-13T07:18:19;18.17;;;7.80;;
43086;SDS011;28708;52.224;6.924;2023-07-13T07:20:45;21.40;;;8.10;;
43086;SDS011;28708;52.224;6.924;2023-07-13T07:23:10;19.40;;;8.53;;
43086;SDS011;28708;52.224;6.924;2023-07-13T07:25:36;19.07;;;7.87;;
43086;SDS011;28708;52.224;6.924;2023-07-13T07:28:07;17.67;;;7.57;;
43086;SDS011;28708;52.224;6.924;2023-07-13T07:30:33;20.50;;;7.63;;
43086;SDS011;28708;52.224;6.924;2023-07-13T07:32:59;17.47;;;7.90;;
43086;SDS011;28708;52.224;6.924;2023-07-13T07:35:26;21.90;;;7.70;;
43086;SDS011;28708;52.224;6.924;2023-07-13T07:37:52;18.97;;;7.57;;
43086;SDS011;28708;52.224;6.924;2023-07-13T07:40:18;20.40;;;7.70;;
43086;SDS011;28708;52.224;6.924;2023-07-13T07:42:44;19.27;;;9.10;;
43086;SDS011;28708;52.224;6.924;2023-07-13T07:45:09;19.27;;;7.70;;
43086;SDS011;28708;52.224;6.924;2023-07-13T07:47:38;24.45;;;8.52;;
43086;SDS011;28708;52.224;6.924;2023-07-13T07:50:04;24.37;;;8.33;;
43086;SDS011;28708;52.224;6.924;2023-07-13T07:52:30;21.70;;;9.33;;
43086;SDS011;28708;52.224;6.924;2023-07-13T07:54:56;20.97;;;9.17;;
43086;SDS011;28708;52.224;6.924;2023-07-13T07:57:22;21.60;;;9.73;;
43086;SDS011;28708;52.224;6.924;2023-07-13T07:59:48;22.00;;;9.43;;
43086;SDS011;28708;52.224;6.924;2023-07-13T08:02:13;20.30;;;9.47;;
43086;SDS011;28708;52.224;6.924;2023-07-13T08:04:39;23.10;;;9.90;;
43086;SDS011;28708;52.224;6.924;2023-07-13T08:07:05;25.50;;;9.43;;
43086;SDS011;28708;52.224;6.924;2023-07-13T08:09:31;20.83;;;8.47;;
43086;SDS011;28708;52.224;6.924;2023-07-13T08:11:57;26.33;;;9.77;;
43086;SDS011;28708;52.224;6.924;2023-07-13T08:14:23;22.20;;;9.13;;
43086;SDS011;28708;52.224;6.924;2023-07-13T08:16:49;18.47;;;8.50;;
43086;SDS011;28708;52.224;6.924;2023-07-13T08:19:15;22.50;;;9.20;;
43086;SDS011;28708;52.224;6.924;2023-07-13T08:21:40;18.33;;;8.87;;
43086;SDS011;28708;52.224;6.924;2023-07-13T08:24:08;17.40;;;8.27;;
43086;SDS011;28708;52.224;6.924;2023-07-13T08:26:34;21.53;;;8.90;;
43086;SDS011;28708;52.224;6.924;2023-07-13T08:29:00;20.53;;;8.70;;
43086;SDS011;28708;52.224;6.924;2023-07-13T08:31:27;19.75;;;8.15;;
43086;SDS011;28708;52.224;6.924;2023-07-13T08:33:53;24.30;;;8.63;;
43086;SDS011;28708;52.224;6.924;2023-07-13T08:36:18;18.60;;;6.85;;
43086;SDS011;28708;52.224;6.924;2023-07-13T08:38:44;15.98;;;7.15;;
43086;SDS011;28708;52.224;6.924;2023-07-13T08:41:11;20.88;;;7.45;;
43086;SDS011;28708;52.224;6.924;2023-07-13T08:43:43;19.10;;;7.80;;
43086;SDS011;28708;52.224;6.924;2023-07-13T08:46:13;19.33;;;8.82;;
43086;SDS011;28708;52.224;6.924;2023-07-13T08:48:53;15.97;;;7.67;;
43086;SDS011;28708;52.224;6.924;2023-07-13T08:53:51;19.07;;;7.73;;
43086;SDS011;28708;52.224;6.924;2023-07-13T08:56:21;22.77;;;8.65;;
43086;SDS011;28708;52.224;6.924;2023-07-13T09:01:33;17.27;;;7.60;;
43086;SDS011;28708;52.224;6.924;2023-07-13T09:04:18;18.92;;;7.88;;
43086;SDS011;28708;52.224;6.924;2023-07-13T09:06:55;21.65;;;7.63;;
43086;SDS011;28708;52.224;6.924;2023-07-13T09:14:42;30.42;;;9.38;;
43086;SDS011;28708;52.224;6.924;2023-07-13T09:17:34;21.50;;;9.13;;
43086;SDS011;28708;52.224;6.924;2023-07-13T09:22:51;18.23;;;7.85;;
43086;SDS011;28708;52.224;6.924;2023-07-13T09:28:02;16.90;;;7.85;;
43086;SDS011;28708;52.224;6.924;2023-07-13T09:33:13;20.35;;;8.23;;
43086;SDS011;28708;52.224;6.924;2023-07-13T09:35:39;16.48;;;8.38;;
43086;SDS011;28708;52.224;6.924;2023-07-13T09:44:01;19.35;;;8.68;;
43086;SDS011;28708;52.224;6.924;2023-07-13T09:46:34;20.58;;;8.82;;
43086;SDS011;28708;52.224;6.924;2023-07-13T09:49:00;24.08;;;10.45;;
43086;SDS011;28708;52.224;6.924;2023-07-13T09:51:25;21.45;;;8.50;;
43086;SDS011;28708;52.224;6.924;2023-07-13T09:53:52;23.42;;;9.43;;
43086;SDS011;28708;52.224;6.924;2023-07-13T09:56:20;19.52;;;9.68;;
43086;SDS011;28708;52.224;6.924;2023-07-13T09:58:47;16.83;;;9.23;;
43086;SDS011;28708;52.224;6.924;2023-07-13T10:01:13;21.67;;;8.63;;
43086;SDS011;28708;52.224;6.924;2023-07-13T10:03:39;24.15;;;9.25;;
43086;SDS011;28708;52.224;6.924;2023-07-13T10:06:20;23.40;;;9.55;;
43086;SDS011;28708;52.224;6.924;2023-07-13T10:08:47;17.50;;;8.25;;
43086;SDS011;28708;52.224;6.924;2023-07-13T10:11:29;24.48;;;8.82;;
43086;SDS011;28708;52.224;6.924;2023-07-13T10:13:59;21.20;;;8.60;;
43086;SDS011;28708;52.224;6.924;2023-07-13T10:16:31;22.35;;;7.85;;
43086;SDS011;28708;52.224;6.924;2023-07-13T10:18:59;17.42;;;7.60;;
43086;SDS011;28708;52.224;6.924;2023-07-13T10:21:55;16.77;;;7.65;;
43086;SDS011;28708;52.224;6.924;2023-07-13T10:24:29;19.25;;;8.25;;
43086;SDS011;28708;52.224;6.924;2023-07-13T10:29:29;18.48;;;7.95;;
43086;SDS011;28708;52.224;6.924;2023-07-13T10:32:00;21.48;;;7.53;;
43086;SDS011;28708;52.224;6.924;2023-07-13T10:34:26;16.35;;;6.63;;
43086;SDS011;28708;52.224;6.924;2023-07-13T10:36:52;16.92;;;7.22;;
43086;SDS011;28708;52.224;6.924;2023-07-13T10:39:20;17.33;;;7.28;;
43086;SDS011;28708;52.224;6.924;2023-07-13T10:41:54;13.48;;;6.15;;
43086;SDS011;28708;52.224;6.924;2023-07-13T10:44:25;14.43;;;5.85;;
43086;SDS011;28708;52.224;6.924;2023-07-13T10:46:57;14.68;;;6.00;;
43086;SDS011;28708;52.224;6.924;2023-07-13T10:49:28;14.93;;;6.60;;
43086;SDS011;28708;52.224;6.924;2023-07-13T10:51:56;19.17;;;5.80;;
43086;SDS011;28708;52.224;6.924;2023-07-13T10:54:34;15.40;;;6.32;;
43086;SDS011;28708;52.224;6.924;2023-07-13T10:57:14;15.77;;;6.32;;
43086;SDS011;28708;52.224;6.924;2023-07-13T11:00:10;12.60;;;5.47;;
43086;SDS011;28708;52.224;6.924;2023-07-13T11:02:42;18.85;;;5.65;;
43086;SDS011;28708;52.224;6.924;2023-07-13T11:05:26;16.23;;;6.38;;
43086;SDS011;28708;52.224;6.924;2023-07-13T11:07:56;16.55;;;7.00;;
43086;SDS011;28708;52.224;6.924;2023-07-13T11:16:32;15.90;;;8.43;;
43086;SDS011;28708;52.224;6.924;2023-07-13T11:21:29;16.97;;;7.33;;
43086;SDS011;28708;52.224;6.924;2023-07-13T11:32:00;15.57;;;6.88;;
43086;SDS011;28708;52.224;6.924;2023-07-13T11:34:45;13.18;;;6.97;;
43086;SDS011;28708;52.224;6.924;2023-07-13T11:37:12;16.30;;;7.93;;
43086;SDS011;28708;52.224;6.924;2023-07-13T11:39:42;15.48;;;6.88;;
43086;SDS011;28708;52.224;6.924;2023-07-13T11:42:11;15.02;;;5.88;;
43086;SDS011;28708;52.224;6.924;2023-07-13T11:44:50;15.27;;;6.55;;
43086;SDS011;28708;52.224;6.924;2023-07-13T11:47:20;11.33;;;6.00;;
43086;SDS011;28708;52.224;6.924;2023-07-13T11:49:53;10.10;;;5.82;;
43086;SDS011;28708;52.224;6.924;2023-07-13T11:52:34;12.30;;;5.22;;
43086;SDS011;28708;52.224;6.924;2023-07-13T11:55:03;9.25;;;4.60;;
43086;SDS011;28708;52.224;6.924;2023-07-13T11:57:47;7.95;;;3.58;;
43086;SDS011;28708;52.224;6.924;2023-07-13T12:00:17;10.05;;;4.50;;
43086;SDS011;28708;52.224;6.924;2023-07-13T12:02:48;8.77;;;3.80;;
43086;SDS011;28708;52.224;6.924;2023-07-13T12:07:44;4.53;;;1.65;;
43086;SDS011;28708;52.224;6.924;2023-07-13T12:10:26;4.27;;;1.50;;
43086;SDS011;28708;52.224;6.924;2023-07-13T12:13:03;7.18;;;1.77;;
43086;SDS011;28708;52.224;6.924;2023-07-13T12:18:28;5.73;;;1.33;;
43086;SDS011;28708;52.224;6.924;2023-07-13T12:20:57;3.78;;;1.27;;
43086;SDS011;28708;52.224;6.924;2023-07-13T12:23:28;3.60;;;1.30;;
43086;SDS011;28708;52.224;6.924;2023-07-13T12:25:55;1.80;;;1.00;;
43086;SDS011;28708;52.224;6.924;2023-07-13T12:28:28;2.70;;;1.00;;
43086;SDS011;28708;52.224;6.924;2023-07-13T12:31:00;2.27;;;1.10;;
43086;SDS011;28708;52.224;6.924;2023-07-13T12:33:28;2.80;;;1.13;;
43086;SDS011;28708;52.224;6.924;2023-07-13T12:35:58;3.37;;;1.87;;
43086;SDS011;28708;52.224;6.924;2023-07-13T12:38:27;5.97;;;2.70;;
43086;SDS011;28708;52.224;6.924;2023-07-13T12:40:53;7.07;;;2.73;;
43086;SDS011;28708;52.224;6.924;2023-07-13T12:43:19;5.27;;;2.73;;
43086;SDS011;28708;52.224;6.924;2023-07-13T12:48:47;3.90;;;2.40;;
43086;SDS011;28708;52.224;6.924;2023-07-13T12:51:15;6.87;;;2.40;;
43086;SDS011;28708;52.224;6.924;2023-07-13T12:53:43;4.87;;;2.40;;
43086;SDS011;28708;52.224;6.924;2023-07-13T12:56:21;9.40;;;2.93;;
43086;SDS011;28708;52.224;6.924;2023-07-13T12:58:49;5.53;;;2.77;;
43086;SDS011;28708;52.224;6.924;2023-07-13T13:01:20;7.13;;;2.80;;
43086;SDS011;28708;52.224;6.924;2023-07-13T13:03:49;10.33;;;3.23;;
43086;SDS011;28708;52.224;6.924;2023-07-13T13:06:22;10.67;;;3.70;;
43086;SDS011;28708;52.224;6.924;2023-07-13T13:08:51;8.48;;;3.67;;
43086;SDS011;28708;52.224;6.924;2023-07-13T13:11:19;8.57;;;3.57;;
43086;SDS011;28708;52.224;6.924;2023-07-13T13:13:46;8.53;;;3.40;;
43086;SDS011;28708;52.224;6.924;2023-07-13T13:19:11;11.00;;;3.57;;
43086;SDS011;28708;52.224;6.924;2023-07-13T13:24:16;9.23;;;3.60;;
43086;SDS011;28708;52.224;6.924;2023-07-13T13:26:45;7.38;;;3.33;;
43086;SDS011;28708;52.224;6.924;2023-07-13T13:31:39;7.93;;;3.50;;
43086;SDS011;28708;52.224;6.924;2023-07-13T13:34:07;7.57;;;3.40;;
43086;SDS011;28708;52.224;6.924;2023-07-13T13:39:00;8.30;;;3.17;;
43086;SDS011;28708;52.224;6.924;2023-07-13T13:41:27;5.82;;;2.72;;
43086;SDS011;28708;52.224;6.924;2023-07-13T13:43:53;8.63;;;3.03;;
43086;SDS011;28708;52.224;6.924;2023-07-13T13:46:20;7.83;;;2.93;;
43086;SDS011;28708;52.224;6.924;2023-07-13T13:48:50;5.70;;;3.15;;
43086;SDS011;28708;52.224;6.924;2023-07-13T13:51:20;7.33;;;2.80;;
43086;SDS011;28708;52.224;6.924;2023-07-13T13:53:47;11.73;;;3.40;;
43086;SDS011;28708;52.224;6.924;2023-07-13T13:56:13;8.43;;;3.37;;
43086;SDS011;28708;52.224;6.924;2023-07-13T13:58:40;10.27;;;3.67;;
43086;SDS011;28708;52.224;6.924;2023-07-13T14:01:24;8.27;;;4.00;;
43086;SDS011;28708;52.224;6.924;2023-07-13T14:03:56;17.52;;;5.10;;
43086;SDS011;28708;52.224;6.924;2023-07-13T14:06:22;13.13;;;6.33;;
43086;SDS011;28708;52.224;6.924;2023-07-13T14:08:48;10.03;;;5.83;;
43086;SDS011;28708;52.224;6.924;2023-07-13T14:11:15;11.53;;;7.13;;
43086;SDS011;28708;52.224;6.924;2023-07-13T14:13:44;11.82;;;6.20;;
43086;SDS011;28708;52.224;6.924;2023-07-13T14:16:17;9.97;;;6.40;;
43086;SDS011;28708;52.224;6.924;2023-07-13T14:18:47;10.87;;;6.07;;
43086;SDS011;28708;52.224;6.924;2023-07-13T14:21:14;11.97;;;6.50;;
43086;SDS011;28708;52.224;6.924;2023-07-13T14:23:43;10.03;;;5.10;;
43086;SDS011;28708;52.224;6.924;2023-07-13T14:26:10;11.23;;;5.20;;
43086;SDS011;28708;52.224;6.924;2023-07-13T14:28:38;7.00;;;4.10;;
43086;SDS011;28708;52.224;6.924;2023-07-13T14:31:08;10.60;;;4.00;;
43086;SDS011;28708;52.224;6.924;2023-07-13T14:33:35;6.67;;;3.60;;
43086;SDS011;28708;52.224;6.924;2023-07-13T14:36:01;6.97;;;3.50;;
43086;SDS011;28708;52.224;6.924;2023-07-13T14:38:28;8.70;;;3.30;;
43086;SDS011;28708;52.224;6.924;2023-07-13T14:40:54;5.47;;;2.70;;
43086;SDS011;28708;52.224;6.924;2023-07-13T14:43:20;9.57;;;3.20;;
43086;SDS011;28708;52.224;6.924;2023-07-13T14:45:49;7.37;;;3.13;;
43086;SDS011;28708;52.224;6.924;2023-07-13T14:48:22;5.93;;;2.70;;
43086;SDS011;28708;52.224;6.924;2023-07-13T14:50:56;4.32;;;2.28;;
43086;SDS011;28708;52.224;6.924;2023-07-13T14:53:24;5.00;;;2.63;;
43086;SDS011;28708;52.224;6.924;2023-07-13T14:55:52;7.72;;;2.80;;
43086;SDS011;28708;52.224;6.924;2023-07-13T14:58:18;6.75;;;2.70;;
43086;SDS011;28708;52.224;6.924;2023-07-13T15:00:45;6.90;;;2.72;;
43086;SDS011;28708;52.224;6.924;2023-07-13T15:03:19;7.32;;;2.75;;
43086;SDS011;28708;52.224;6.924;2023-07-13T15:05:48;6.82;;;2.70;;
43086;SDS011;28708;52.224;6.924;2023-07-13T15:08:15;6.13;;;2.45;;
43086;SDS011;28708;52.224;6.924;2023-07-13T15:10:41;4.53;;;2.65;;
43086;SDS011;28708;52.224;6.924;2023-07-13T15:13:17;4.90;;;2.08;;
43086;SDS011;28708;52.224;6.924;2023-07-13T15:15:49;6.72;;;2.88;;
43086;SDS011;28708;52.224;6.924;2023-07-13T15:18:17;4.38;;;2.30;;
43086;SDS011;28708;52.224;6.924;2023-07-13T15:20:45;5.97;;;2.53;;
43086;SDS011;28708;52.224;6.924;2023-07-13T15:23:12;5.63;;;2.80;;
43086;SDS011;28708;52.224;6.924;2023-07-13T15:25:40;6.95;;;3.00;;
43086;SDS011;28708;52.224;6.924;2023-07-13T15:28:07;8.40;;;2.80;;
43086;SDS011;28708;52.224;6.924;2023-07-13T15:30:38;8.00;;;2.80;;
43086;SDS011;28708;52.224;6.924;2023-07-13T15:35:45;7.07;;;2.72;;
43086;SDS011;28708;52.224;6.924;2023-07-13T15:38:14;6.18;;;2.78;;
43086;SDS011;28708;52.224;6.924;2023-07-13T15:40:42;8.00;;;2.88;;
43086;SDS011;28708;52.224;6.924;2023-07-13T15:43:12;6.97;;;3.67;;
43086;SDS011;28708;52.224;6.924;2023-07-13T15:45:39;11.35;;;3.70;;
43086;SDS011;28708;52.224;6.924;2023-07-13T15:53:13;3.90;;;2.22;;
43086;SDS011;28708;52.224;6.924;2023-07-13T15:55:50;7.47;;;3.15;;
43086;SDS011;28708;52.224;6.924;2023-07-13T15:58:17;4.70;;;1.93;;
43086;SDS011;28708;52.224;6.924;2023-07-13T16:00:44;6.30;;;2.30;;